sensor_id;sensor_type;location;lat;lon;timestamp;temperature;humidity
40287;DHT22;25998;46.604;13.610;2022-08-21T00:01:16;17.00;99.90
40287;DHT22;25998;46.604;13.610;2022-08-21T00:04:28;16.90;99.90
40287;DHT22;25998;46.604;13.610;2022-08-21T00:07:39;16.80;99.90
40287;DHT22;25998;46.604;13.610;2022-08-21T00:10:50;16.80;99.90
40287;DHT22;25998;46.604;13.610;2022-08-21T00:14:02;16.90;99.90
40287;DHT22;25998;46.604;13.610;2022-08-21T00:17:13;17.10;99.90
40287;DHT22;25998;46.604;13.610;2022-08-21T00:20:25;16.80;99.90
40287;DHT22;25998;46.604;13.610;2022-08-21T00:23:36;16.80;99.90
40287;DHT22;25998;46.604;13.610;2022-08-21T00:26:47;16.90;99.90
40287;DHT22;25998;46.604;13.610;2022-08-21T00:29:58;16.90;99.90
40287;DHT22;25998;46.604;13.610;2022-08-21T00:33:11;16.80;99.90
40287;DHT22;25998;46.604;13.610;2022-08-21T00:36:22;16.80;99.90
40287;DHT22;25998;46.604;13.610;2022-08-21T00:39:33;16.60;99.90
40287;DHT22;25998;46.604;13.610;2022-08-21T00:42:43;16.60;99.90
40287;DHT22;25998;46.604;13.610;2022-08-21T00:45:55;16.60;99.90
40287;DHT22;25998;46.604;13.610;2022-08-21T00:49:07;16.40;99.90
40287;DHT22;25998;46.604;13.610;2022-08-21T00:52:25;16.30;99.90
40287;DHT22;25998;46.604;13.610;2022-08-21T00:55:37;16.40;99.90
40287;DHT22;25998;46.604;13.610;2022-08-21T00:58:49;16.50;99.90
40287;DHT22;25998;46.604;13.610;2022-08-21T01:02:00;16.70;99.90
40287;DHT22;25998;46.604;13.610;2022-08-21T01:05:12;16.80;99.90
40287;DHT22;25998;46.604;13.610;2022-08-21T01:08:24;16.80;99.90
40287;DHT22;25998;46.604;13.610;2022-08-21T01:11:36;16.80;99.90
40287;DHT22;25998;46.604;13.610;2022-08-21T01:14:47;16.70;99.90
40287;DHT22;25998;46.604;13.610;2022-08-21T01:17:59;16.80;99.90
40287;DHT22;25998;46.604;13.610;2022-08-21T01:21:19;16.60;99.90
40287;DHT22;25998;46.604;13.610;2022-08-21T01:24:30;16.60;99.90
40287;DHT22;25998;46.604;13.610;2022-08-21T01:27:45;16.70;99.90
40287;DHT22;25998;46.604;13.610;2022-08-21T01:30:56;16.70;99.90
40287;DHT22;25998;46.604;13.610;2022-08-21T01:34:10;16.70;99.90
40287;DHT22;25998;46.604;13.610;2022-08-21T01:37:21;16.80;99.90
40287;DHT22;25998;46.604;13.610;2022-08-21T01:40:32;16.90;99.90
40287;DHT22;25998;46.604;13.610;2022-08-21T01:43:44;16.90;99.90
40287;DHT22;25998;46.604;13.610;2022-08-21T01:46:58;16.90;99.90
40287;DHT22;25998;46.604;13.610;2022-08-21T01:50:12;16.90;99.90
40287;DHT22;25998;46.604;13.610;2022-08-21T01:53:24;16.80;99.90
40287;DHT22;25998;46.604;13.610;2022-08-21T01:56:47;16.80;99.90
40287;DHT22;25998;46.604;13.610;2022-08-21T01:59:59;16.80;99.90
40287;DHT22;25998;46.604;13.610;2022-08-21T02:03:09;16.70;99.90
40287;DHT22;25998;46.604;13.610;2022-08-21T02:06:20;16.70;99.90
40287;DHT22;25998;46.604;13.610;2022-08-21T02:09:31;16.70;99.90
40287;DHT22;25998;46.604;13.610;2022-08-21T02:12:43;16.80;99.90
40287;DHT22;25998;46.604;13.610;2022-08-21T02:15:54;16.70;99.90
40287;DHT22;25998;46.604;13.610;2022-08-21T02:19:05;16.70;99.90
40287;DHT22;25998;46.604;13.610;2022-08-21T02:22:16;16.60;99.90
40287;DHT22;25998;46.604;13.610;2022-08-21T02:25:28;16.40;99.90
40287;DHT22;25998;46.604;13.610;2022-08-21T02:28:39;16.10;99.90
40287;DHT22;25998;46.604;13.610;2022-08-21T02:31:50;16.20;99.90
40287;DHT22;25998;46.604;13.610;2022-08-21T02:35:01;16.40;99.90
40287;DHT22;25998;46.604;13.610;2022-08-21T02:38:15;16.40;99.90
40287;DHT22;25998;46.604;13.610;2022-08-21T02:41:27;16.20;99.90
40287;DHT22;25998;46.604;13.610;2022-08-21T02:44:38;16.10;99.90
40287;DHT22;25998;46.604;13.610;2022-08-21T02:47:51;16.00;99.90
40287;DHT22;25998;46.604;13.610;2022-08-21T02:51:06;16.00;99.90
40287;DHT22;25998;46.604;13.610;2022-08-21T02:54:17;15.90;99.90
40287;DHT22;25998;46.604;13.610;2022-08-21T02:57:28;15.90;99.90
40287;DHT22;25998;46.604;13.610;2022-08-21T03:00:39;15.90;99.90
40287;DHT22;25998;46.604;13.610;2022-08-21T03:03:49;16.00;99.90
40287;DHT22;25998;46.604;13.610;2022-08-21T03:07:00;16.10;99.90
40287;DHT22;25998;46.604;13.610;2022-08-21T03:10:11;16.00;99.90
40287;DHT22;25998;46.604;13.610;2022-08-21T03:13:25;15.90;99.90
40287;DHT22;25998;46.604;13.610;2022-08-21T03:16:36;15.80;99.90
40287;DHT22;25998;46.604;13.610;2022-08-21T03:19:47;15.90;99.90
40287;DHT22;25998;46.604;13.610;2022-08-21T03:22:58;15.90;99.90
40287;DHT22;25998;46.604;13.610;2022-08-21T03:26:10;15.90;99.90
40287;DHT22;25998;46.604;13.610;2022-08-21T03:29:21;15.80;99.90
40287;DHT22;25998;46.604;13.610;2022-08-21T03:32:33;15.70;99.90
40287;DHT22;25998;46.604;13.610;2022-08-21T03:35:47;15.70;99.90
40287;DHT22;25998;46.604;13.610;2022-08-21T03:38:59;15.70;99.90
40287;DHT22;25998;46.604;13.610;2022-08-21T03:42:11;15.70;99.90
40287;DHT22;25998;46.604;13.610;2022-08-21T03:45:22;15.80;99.90
40287;DHT22;25998;46.604;13.610;2022-08-21T03:48:35;15.70;99.90
40287;DHT22;25998;46.604;13.610;2022-08-21T03:51:46;15.50;99.90
40287;DHT22;25998;46.604;13.610;2022-08-21T03:54:57;15.40;99.90
40287;DHT22;25998;46.604;13.610;2022-08-21T03:58:08;15.60;99.90
40287;DHT22;25998;46.604;13.610;2022-08-21T04:01:19;15.80;99.90
40287;DHT22;25998;46.604;13.610;2022-08-21T04:04:30;15.60;99.90
40287;DHT22;25998;46.604;13.610;2022-08-21T04:07:41;15.70;99.90
40287;DHT22;25998;46.604;13.610;2022-08-21T04:10:54;15.70;99.90
40287;DHT22;25998;46.604;13.610;2022-08-21T04:14:06;15.60;99.90
40287;DHT22;25998;46.604;13.610;2022-08-21T04:17:18;15.50;99.90
40287;DHT22;25998;46.604;13.610;2022-08-21T04:20:31;15.50;99.90
40287;DHT22;25998;46.604;13.610;2022-08-21T04:23:42;15.50;99.90
40287;DHT22;25998;46.604;13.610;2022-08-21T04:26:53;15.60;99.90
40287;DHT22;25998;46.604;13.610;2022-08-21T04:30:04;15.60;99.90
40287;DHT22;25998;46.604;13.610;2022-08-21T04:33:19;15.50;99.90
40287;DHT22;25998;46.604;13.610;2022-08-21T04:36:31;15.60;99.90
40287;DHT22;25998;46.604;13.610;2022-08-21T04:39:43;15.70;99.90
40287;DHT22;25998;46.604;13.610;2022-08-21T04:42:57;15.70;99.90
40287;DHT22;25998;46.604;13.610;2022-08-21T04:46:10;15.70;99.90
40287;DHT22;25998;46.604;13.610;2022-08-21T04:49:21;15.80;99.90
40287;DHT22;25998;46.604;13.610;2022-08-21T04:52:32;15.80;99.90
40287;DHT22;25998;46.604;13.610;2022-08-21T04:55:44;16.00;99.90
40287;DHT22;25998;46.604;13.610;2022-08-21T04:59:02;15.90;99.90
40287;DHT22;25998;46.604;13.610;2022-08-21T05:02:14;16.00;99.90
40287;DHT22;25998;46.604;13.610;2022-08-21T05:05:27;15.80;99.90
40287;DHT22;25998;46.604;13.610;2022-08-21T05:08:40;16.00;99.90
40287;DHT22;25998;46.604;13.610;2022-08-21T05:11:51;15.90;99.90
40287;DHT22;25998;46.604;13.610;2022-08-21T05:15:03;15.90;99.90
40287;DHT22;25998;46.604;13.610;2022-08-21T05:18:14;16.10;99.90
40287;DHT22;25998;46.604;13.610;2022-08-21T05:21:25;16.10;99.90
40287;DHT22;25998;46.604;13.610;2022-08-21T05:24:36;16.00;99.90
40287;DHT22;25998;46.604;13.610;2022-08-21T05:27:47;16.10;99.90
40287;DHT22;25998;46.604;13.610;2022-08-21T05:30:58;16.30;99.90
40287;DHT22;25998;46.604;13.610;2022-08-21T05:34:09;16.30;99.90
40287;DHT22;25998;46.604;13.610;2022-08-21T05:37:20;16.40;99.90
40287;DHT22;25998;46.604;13.610;2022-08-21T05:40:32;16.50;99.90
40287;DHT22;25998;46.604;13.610;2022-08-21T05:43:43;16.50;99.90
40287;DHT22;25998;46.604;13.610;2022-08-21T05:46:54;16.40;99.90
40287;DHT22;25998;46.604;13.610;2022-08-21T05:50:05;16.20;99.90
40287;DHT22;25998;46.604;13.610;2022-08-21T05:53:19;16.10;99.90
40287;DHT22;25998;46.604;13.610;2022-08-21T05:56:30;16.00;99.90
40287;DHT22;25998;46.604;13.610;2022-08-21T05:59:42;16.20;99.90
40287;DHT22;25998;46.604;13.610;2022-08-21T06:02:53;16.30;99.90
40287;DHT22;25998;46.604;13.610;2022-08-21T06:06:05;16.50;99.90
40287;DHT22;25998;46.604;13.610;2022-08-21T06:09:16;16.60;99.90
40287;DHT22;25998;46.604;13.610;2022-08-21T06:12:27;16.70;99.90
40287;DHT22;25998;46.604;13.610;2022-08-21T06:15:38;16.60;99.90
40287;DHT22;25998;46.604;13.610;2022-08-21T06:18:50;16.70;99.90
40287;DHT22;25998;46.604;13.610;2022-08-21T06:22:00;16.90;99.90
40287;DHT22;25998;46.604;13.610;2022-08-21T06:25:11;17.10;99.90
40287;DHT22;25998;46.604;13.610;2022-08-21T06:28:23;17.20;99.90
40287;DHT22;25998;46.604;13.610;2022-08-21T06:31:33;17.20;99.90
40287;DHT22;25998;46.604;13.610;2022-08-21T06:34:50;17.20;99.90
40287;DHT22;25998;46.604;13.610;2022-08-21T06:38:02;17.20;99.90
40287;DHT22;25998;46.604;13.610;2022-08-21T06:41:16;17.40;99.90
40287;DHT22;25998;46.604;13.610;2022-08-21T06:44:30;17.50;99.90
40287;DHT22;25998;46.604;13.610;2022-08-21T06:47:42;17.50;99.90
40287;DHT22;25998;46.604;13.610;2022-08-21T06:50:53;17.60;99.90
40287;DHT22;25998;46.604;13.610;2022-08-21T06:54:04;17.60;99.90
40287;DHT22;25998;46.604;13.610;2022-08-21T06:57:15;17.60;99.90
40287;DHT22;25998;46.604;13.610;2022-08-21T07:00:26;17.90;99.90
40287;DHT22;25998;46.604;13.610;2022-08-21T07:03:40;18.70;99.90
40287;DHT22;25998;46.604;13.610;2022-08-21T07:06:51;19.20;99.90
40287;DHT22;25998;46.604;13.610;2022-08-21T07:10:02;19.50;99.90
40287;DHT22;25998;46.604;13.610;2022-08-21T07:13:13;19.60;99.90
40287;DHT22;25998;46.604;13.610;2022-08-21T07:16:24;19.50;99.90
40287;DHT22;25998;46.604;13.610;2022-08-21T07:19:38;19.40;99.90
40287;DHT22;25998;46.604;13.610;2022-08-21T07:22:48;19.10;99.90
40287;DHT22;25998;46.604;13.610;2022-08-21T07:25:59;19.20;99.90
40287;DHT22;25998;46.604;13.610;2022-08-21T07:29:11;19.30;99.90
40287;DHT22;25998;46.604;13.610;2022-08-21T07:32:21;19.60;99.90
40287;DHT22;25998;46.604;13.610;2022-08-21T07:35:32;19.90;99.90
40287;DHT22;25998;46.604;13.610;2022-08-21T07:38:44;20.60;99.90
40287;DHT22;25998;46.604;13.610;2022-08-21T07:41:55;20.60;99.90
40287;DHT22;25998;46.604;13.610;2022-08-21T07:45:10;20.80;99.90
40287;DHT22;25998;46.604;13.610;2022-08-21T07:48:22;21.90;99.90
40287;DHT22;25998;46.604;13.610;2022-08-21T07:51:33;22.40;99.90
40287;DHT22;25998;46.604;13.610;2022-08-21T07:54:44;22.30;99.90
40287;DHT22;25998;46.604;13.610;2022-08-21T07:57:55;22.50;99.90
40287;DHT22;25998;46.604;13.610;2022-08-21T08:01:06;22.90;99.90
40287;DHT22;25998;46.604;13.610;2022-08-21T08:04:17;23.40;99.90
40287;DHT22;25998;46.604;13.610;2022-08-21T08:07:28;23.70;99.90
40287;DHT22;25998;46.604;13.610;2022-08-21T08:10:39;24.20;99.90
40287;DHT22;25998;46.604;13.610;2022-08-21T08:13:51;24.00;99.90
40287;DHT22;25998;46.604;13.610;2022-08-21T08:17:02;23.50;99.90
40287;DHT22;25998;46.604;13.610;2022-08-21T08:20:15;23.10;99.80
40287;DHT22;25998;46.604;13.610;2022-08-21T08:23:26;22.80;99.70
40287;DHT22;25998;46.604;13.610;2022-08-21T08:26:38;23.70;99.90
40287;DHT22;25998;46.604;13.610;2022-08-21T08:29:50;24.50;98.70
40287;DHT22;25998;46.604;13.610;2022-08-21T08:33:01;25.10;96.60
40287;DHT22;25998;46.604;13.610;2022-08-21T08:36:15;24.90;97.00
40287;DHT22;25998;46.604;13.610;2022-08-21T08:39:26;25.40;98.40
40287;DHT22;25998;46.604;13.610;2022-08-21T08:42:37;25.50;99.30
40287;DHT22;25998;46.604;13.610;2022-08-21T08:45:53;25.60;98.10
40287;DHT22;25998;46.604;13.610;2022-08-21T08:49:30;25.50;97.90
40287;DHT22;25998;46.604;13.610;2022-08-21T08:52:47;25.10;97.10
40287;DHT22;25998;46.604;13.610;2022-08-21T08:56:01;24.90;97.90
40287;DHT22;25998;46.604;13.610;2022-08-21T08:59:19;24.30;97.30
40287;DHT22;25998;46.604;13.610;2022-08-21T09:02:30;23.90;98.70
40287;DHT22;25998;46.604;13.610;2022-08-21T09:05:58;23.50;98.50
40287;DHT22;25998;46.604;13.610;2022-08-21T09:09:29;23.60;98.10
40287;DHT22;25998;46.604;13.610;2022-08-21T09:13:07;23.80;98.00
40287;DHT22;25998;46.604;13.610;2022-08-21T09:16:40;23.90;98.10
40287;DHT22;25998;46.604;13.610;2022-08-21T09:23:49;24.10;98.90
40287;DHT22;25998;46.604;13.610;2022-08-21T09:27:13;23.80;98.90
40287;DHT22;25998;46.604;13.610;2022-08-21T09:30:32;23.50;99.20
40287;DHT22;25998;46.604;13.610;2022-08-21T09:33:43;23.20;99.80
40287;DHT22;25998;46.604;13.610;2022-08-21T09:36:54;23.50;99.90
40287;DHT22;25998;46.604;13.610;2022-08-21T09:40:39;23.80;99.90
40287;DHT22;25998;46.604;13.610;2022-08-21T09:43:54;24.50;99.90
40287;DHT22;25998;46.604;13.610;2022-08-21T09:47:06;24.90;97.80
40287;DHT22;25998;46.604;13.610;2022-08-21T09:50:21;24.80;98.00
40287;DHT22;25998;46.604;13.610;2022-08-21T09:53:33;25.00;95.80
40287;DHT22;25998;46.604;13.610;2022-08-21T09:56:55;25.30;96.60
40287;DHT22;25998;46.604;13.610;2022-08-21T10:00:29;25.80;96.30
40287;DHT22;25998;46.604;13.610;2022-08-21T10:07:15;26.20;94.60
40287;DHT22;25998;46.604;13.610;2022-08-21T10:10:36;26.30;93.60
40287;DHT22;25998;46.604;13.610;2022-08-21T10:17:27;26.90;93.60
40287;DHT22;25998;46.604;13.610;2022-08-21T10:20:54;27.00;94.60
40287;DHT22;25998;46.604;13.610;2022-08-21T10:27:41;27.20;92.20
40287;DHT22;25998;46.604;13.610;2022-08-21T10:31:55;27.50;92.40
40287;DHT22;25998;46.604;13.610;2022-08-21T10:46:13;28.00;91.70
40287;DHT22;25998;46.604;13.610;2022-08-21T10:49:41;28.30;87.90
40287;DHT22;25998;46.604;13.610;2022-08-21T10:53:39;28.40;82.30
40287;DHT22;25998;46.604;13.610;2022-08-21T10:57:01;28.60;85.80
40287;DHT22;25998;46.604;13.610;2022-08-21T11:00:16;29.10;83.50
40287;DHT22;25998;46.604;13.610;2022-08-21T11:07:20;29.20;78.30
40287;DHT22;25998;46.604;13.610;2022-08-21T11:10:53;28.90;79.80
40287;DHT22;25998;46.604;13.610;2022-08-21T11:14:34;28.80;79.50
40287;DHT22;25998;46.604;13.610;2022-08-21T11:18:24;28.30;80.30
40287;DHT22;25998;46.604;13.610;2022-08-21T11:25:16;27.80;77.50
40287;DHT22;25998;46.604;13.610;2022-08-21T11:28:42;28.20;81.40
40287;DHT22;25998;46.604;13.610;2022-08-21T11:35:39;28.00;80.60
40287;DHT22;25998;46.604;13.610;2022-08-21T11:39:30;27.90;78.90
40287;DHT22;25998;46.604;13.610;2022-08-21T11:42:55;28.20;80.90
40287;DHT22;25998;46.604;13.610;2022-08-21T11:46:42;28.50;80.30
40287;DHT22;25998;46.604;13.610;2022-08-21T11:50:15;29.20;85.90
40287;DHT22;25998;46.604;13.610;2022-08-21T11:54:13;29.60;81.10
40287;DHT22;25998;46.604;13.610;2022-08-21T11:57:13;29.60;75.30
40287;DHT22;25998;46.604;13.610;2022-08-21T12:00:33;29.70;79.60
40287;DHT22;25998;46.604;13.610;2022-08-21T12:04:02;29.40;73.10
40287;DHT22;25998;46.604;13.610;2022-08-21T12:11:01;28.90;77.40
40287;DHT22;25998;46.604;13.610;2022-08-21T12:14:19;28.60;75.60
40287;DHT22;25998;46.604;13.610;2022-08-21T12:17:41;28.30;78.20
40287;DHT22;25998;46.604;13.610;2022-08-21T12:21:25;28.30;77.10
40287;DHT22;25998;46.604;13.610;2022-08-21T12:24:48;28.10;80.60
40287;DHT22;25998;46.604;13.610;2022-08-21T12:28:15;28.30;76.40
40287;DHT22;25998;46.604;13.610;2022-08-21T12:31:32;28.30;75.80
40287;DHT22;25998;46.604;13.610;2022-08-21T12:34:48;28.80;77.80
40287;DHT22;25998;46.604;13.610;2022-08-21T12:38:14;29.20;78.90
40287;DHT22;25998;46.604;13.610;2022-08-21T12:41:33;29.20;78.50
40287;DHT22;25998;46.604;13.610;2022-08-21T12:44:55;29.20;79.90
40287;DHT22;25998;46.604;13.610;2022-08-21T12:48:33;29.10;79.80
40287;DHT22;25998;46.604;13.610;2022-08-21T12:55:13;28.60;75.30
40287;DHT22;25998;46.604;13.610;2022-08-21T12:58:26;28.90;78.80
40287;DHT22;25998;46.604;13.610;2022-08-21T13:01:49;28.90;77.20
40287;DHT22;25998;46.604;13.610;2022-08-21T13:05:05;28.90;76.40
40287;DHT22;25998;46.604;13.610;2022-08-21T13:08:18;29.10;76.50
40287;DHT22;25998;46.604;13.610;2022-08-21T13:11:31;29.20;75.30
40287;DHT22;25998;46.604;13.610;2022-08-21T13:14:44;29.40;78.70
40287;DHT22;25998;46.604;13.610;2022-08-21T13:18:00;29.50;76.20
40287;DHT22;25998;46.604;13.610;2022-08-21T13:21:14;29.60;76.70
40287;DHT22;25998;46.604;13.610;2022-08-21T13:24:31;29.30;70.70
40287;DHT22;25998;46.604;13.610;2022-08-21T13:27:55;29.30;69.10
40287;DHT22;25998;46.604;13.610;2022-08-21T13:31:09;29.40;68.70
40287;DHT22;25998;46.604;13.610;2022-08-21T13:34:25;29.80;69.10
40287;DHT22;25998;46.604;13.610;2022-08-21T13:37:42;29.80;72.50
40287;DHT22;25998;46.604;13.610;2022-08-21T13:44:32;29.30;66.40
40287;DHT22;25998;46.604;13.610;2022-08-21T13:47:46;29.10;68.40
40287;DHT22;25998;46.604;13.610;2022-08-21T13:50:58;29.50;71.60
40287;DHT22;25998;46.604;13.610;2022-08-21T13:54:35;29.60;69.20
40287;DHT22;25998;46.604;13.610;2022-08-21T13:57:46;29.60;71.00
40287;DHT22;25998;46.604;13.610;2022-08-21T14:00:59;29.50;65.10
40287;DHT22;25998;46.604;13.610;2022-08-21T14:04:35;29.30;71.10
40287;DHT22;25998;46.604;13.610;2022-08-21T14:07:48;28.70;68.70
40287;DHT22;25998;46.604;13.610;2022-08-21T14:11:04;28.70;70.40
40287;DHT22;25998;46.604;13.610;2022-08-21T14:14:25;28.60;66.20
40287;DHT22;25998;46.604;13.610;2022-08-21T14:17:39;28.60;68.10
40287;DHT22;25998;46.604;13.610;2022-08-21T14:21:04;28.70;70.10
40287;DHT22;25998;46.604;13.610;2022-08-21T14:24:28;28.70;69.00
40287;DHT22;25998;46.604;13.610;2022-08-21T14:27:51;28.40;65.80
40287;DHT22;25998;46.604;13.610;2022-08-21T14:31:15;28.50;73.30
40287;DHT22;25998;46.604;13.610;2022-08-21T14:34:28;28.80;68.10
40287;DHT22;25998;46.604;13.610;2022-08-21T14:37:43;28.70;68.10
40287;DHT22;25998;46.604;13.610;2022-08-21T14:41:03;28.40;67.90
40287;DHT22;25998;46.604;13.610;2022-08-21T14:44:16;28.00;68.10
40287;DHT22;25998;46.604;13.610;2022-08-21T14:47:27;28.00;67.70
40287;DHT22;25998;46.604;13.610;2022-08-21T14:50:39;28.10;67.80
40287;DHT22;25998;46.604;13.610;2022-08-21T14:53:51;27.60;66.40
40287;DHT22;25998;46.604;13.610;2022-08-21T14:57:06;27.70;72.50
40287;DHT22;25998;46.604;13.610;2022-08-21T15:00:21;27.60;68.80
40287;DHT22;25998;46.604;13.610;2022-08-21T15:03:36;27.50;71.20
40287;DHT22;25998;46.604;13.610;2022-08-21T15:06:47;27.60;68.10
40287;DHT22;25998;46.604;13.610;2022-08-21T15:09:58;27.50;66.40
40287;DHT22;25998;46.604;13.610;2022-08-21T15:13:09;27.40;68.10
40287;DHT22;25998;46.604;13.610;2022-08-21T15:16:20;27.40;71.50
40287;DHT22;25998;46.604;13.610;2022-08-21T15:19:31;27.10;66.90
40287;DHT22;25998;46.604;13.610;2022-08-21T15:22:42;27.00;65.70
40287;DHT22;25998;46.604;13.610;2022-08-21T15:25:53;26.90;66.50
40287;DHT22;25998;46.604;13.610;2022-08-21T15:29:08;27.10;71.70
40287;DHT22;25998;46.604;13.610;2022-08-21T15:32:22;27.20;72.60
40287;DHT22;25998;46.604;13.610;2022-08-21T15:35:34;27.10;71.50
40287;DHT22;25998;46.604;13.610;2022-08-21T15:38:45;26.80;72.90
40287;DHT22;25998;46.604;13.610;2022-08-21T15:41:57;26.70;71.10
40287;DHT22;25998;46.604;13.610;2022-08-21T15:45:09;26.50;75.60
40287;DHT22;25998;46.604;13.610;2022-08-21T15:48:22;26.40;74.00
40287;DHT22;25998;46.604;13.610;2022-08-21T15:51:33;26.40;71.60
40287;DHT22;25998;46.604;13.610;2022-08-21T15:54:45;26.30;73.40
40287;DHT22;25998;46.604;13.610;2022-08-21T15:57:56;26.10;70.00
40287;DHT22;25998;46.604;13.610;2022-08-21T16:01:07;26.20;75.60
40287;DHT22;25998;46.604;13.610;2022-08-21T16:04:22;26.00;79.40
40287;DHT22;25998;46.604;13.610;2022-08-21T16:07:33;26.00;77.20
40287;DHT22;25998;46.604;13.610;2022-08-21T16:10:44;25.70;77.00
40287;DHT22;25998;46.604;13.610;2022-08-21T16:13:56;25.90;78.00
40287;DHT22;25998;46.604;13.610;2022-08-21T16:17:11;26.10;73.10
40287;DHT22;25998;46.604;13.610;2022-08-21T16:20:27;26.30;77.70
40287;DHT22;25998;46.604;13.610;2022-08-21T16:23:38;26.10;78.60
40287;DHT22;25998;46.604;13.610;2022-08-21T16:26:51;26.00;79.50
40287;DHT22;25998;46.604;13.610;2022-08-21T16:30:05;25.90;80.80
40287;DHT22;25998;46.604;13.610;2022-08-21T16:36:38;25.80;80.90
40287;DHT22;25998;46.604;13.610;2022-08-21T16:39:49;25.60;80.50
40287;DHT22;25998;46.604;13.610;2022-08-21T16:43:01;25.50;81.90
40287;DHT22;25998;46.604;13.610;2022-08-21T16:46:14;25.40;81.60
40287;DHT22;25998;46.604;13.610;2022-08-21T16:49:25;25.30;83.20
40287;DHT22;25998;46.604;13.610;2022-08-21T16:52:37;25.30;83.30
40287;DHT22;25998;46.604;13.610;2022-08-21T16:55:50;25.10;87.10
40287;DHT22;25998;46.604;13.610;2022-08-21T16:59:01;24.80;88.80
40287;DHT22;25998;46.604;13.610;2022-08-21T17:02:34;24.50;90.50
40287;DHT22;25998;46.604;13.610;2022-08-21T17:05:47;23.80;91.20
40287;DHT22;25998;46.604;13.610;2022-08-21T17:08:58;23.60;91.70
40287;DHT22;25998;46.604;13.610;2022-08-21T17:12:11;23.50;92.20
40287;DHT22;25998;46.604;13.610;2022-08-21T17:15:25;23.00;92.80
40287;DHT22;25998;46.604;13.610;2022-08-21T17:18:37;23.00;93.30
40287;DHT22;25998;46.604;13.610;2022-08-21T17:21:54;23.30;93.20
40287;DHT22;25998;46.604;13.610;2022-08-21T17:25:05;23.00;93.60
40287;DHT22;25998;46.604;13.610;2022-08-21T17:28:24;22.70;94.20
40287;DHT22;25998;46.604;13.610;2022-08-21T17:31:37;22.40;94.30
40287;DHT22;25998;46.604;13.610;2022-08-21T17:35:25;22.60;94.10
40287;DHT22;25998;46.604;13.610;2022-08-21T17:38:39;22.80;94.40
40287;DHT22;25998;46.604;13.610;2022-08-21T17:42:16;22.70;94.10
40287;DHT22;25998;46.604;13.610;2022-08-21T17:45:52;22.60;94.50
40287;DHT22;25998;46.604;13.610;2022-08-21T17:49:43;22.30;95.40
40287;DHT22;25998;46.604;13.610;2022-08-21T17:53:16;22.30;95.10
40287;DHT22;25998;46.604;13.610;2022-08-21T17:56:49;22.20;94.80
40287;DHT22;25998;46.604;13.610;2022-08-21T18:00:00;22.10;94.70
40287;DHT22;25998;46.604;13.610;2022-08-21T18:03:19;21.90;95.00
40287;DHT22;25998;46.604;13.610;2022-08-21T18:06:52;21.40;95.70
40287;DHT22;25998;46.604;13.610;2022-08-21T18:10:10;21.50;95.90
40287;DHT22;25998;46.604;13.610;2022-08-21T18:13:47;21.50;95.70
40287;DHT22;25998;46.604;13.610;2022-08-21T18:17:07;21.30;96.30
40287;DHT22;25998;46.604;13.610;2022-08-21T18:20:54;21.10;96.70
40287;DHT22;25998;46.604;13.610;2022-08-21T18:24:12;21.20;96.80
40287;DHT22;25998;46.604;13.610;2022-08-21T18:27:24;21.40;96.00
40287;DHT22;25998;46.604;13.610;2022-08-21T18:30:40;21.50;96.10
40287;DHT22;25998;46.604;13.610;2022-08-21T18:33:55;21.20;96.00
40287;DHT22;25998;46.604;13.610;2022-08-21T18:37:09;20.80;96.60
40287;DHT22;25998;46.604;13.610;2022-08-21T18:40:20;20.50;97.30
40287;DHT22;25998;46.604;13.610;2022-08-21T18:43:31;20.50;97.30
40287;DHT22;25998;46.604;13.610;2022-08-21T18:46:56;20.30;97.50
40287;DHT22;25998;46.604;13.610;2022-08-21T18:50:12;20.00;98.50
40287;DHT22;25998;46.604;13.610;2022-08-21T18:53:28;20.10;98.30
40287;DHT22;25998;46.604;13.610;2022-08-21T18:56:40;19.90;98.80
40287;DHT22;25998;46.604;13.610;2022-08-21T18:59:56;19.80;98.40
40287;DHT22;25998;46.604;13.610;2022-08-21T19:03:08;20.10;98.20
40287;DHT22;25998;46.604;13.610;2022-08-21T19:06:26;20.00;98.50
40287;DHT22;25998;46.604;13.610;2022-08-21T19:09:59;19.80;98.80
40287;DHT22;25998;46.604;13.610;2022-08-21T19:13:16;19.80;98.60
40287;DHT22;25998;46.604;13.610;2022-08-21T19:16:45;19.60;98.40
40287;DHT22;25998;46.604;13.610;2022-08-21T19:20:23;19.50;99.20
40287;DHT22;25998;46.604;13.610;2022-08-21T19:23:35;19.50;99.40
40287;DHT22;25998;46.604;13.610;2022-08-21T19:26:47;19.20;99.80
40287;DHT22;25998;46.604;13.610;2022-08-21T19:30:00;18.90;99.90
40287;DHT22;25998;46.604;13.610;2022-08-21T19:33:15;18.90;99.90
40287;DHT22;25998;46.604;13.610;2022-08-21T19:36:29;19.00;99.90
40287;DHT22;25998;46.604;13.610;2022-08-21T19:39:42;18.90;99.90
40287;DHT22;25998;46.604;13.610;2022-08-21T19:42:53;19.00;99.90
40287;DHT22;25998;46.604;13.610;2022-08-21T19:46:04;18.70;99.90
40287;DHT22;25998;46.604;13.610;2022-08-21T19:49:19;18.80;99.90
40287;DHT22;25998;46.604;13.610;2022-08-21T19:52:30;18.80;99.90
40287;DHT22;25998;46.604;13.610;2022-08-21T19:55:43;18.70;99.90
40287;DHT22;25998;46.604;13.610;2022-08-21T19:58:55;18.60;99.90
40287;DHT22;25998;46.604;13.610;2022-08-21T20:02:08;18.50;99.90
40287;DHT22;25998;46.604;13.610;2022-08-21T20:05:19;18.50;99.90
40287;DHT22;25998;46.604;13.610;2022-08-21T20:08:30;18.50;99.90
40287;DHT22;25998;46.604;13.610;2022-08-21T20:11:54;18.60;99.90
40287;DHT22;25998;46.604;13.610;2022-08-21T20:15:07;18.60;99.90
40287;DHT22;25998;46.604;13.610;2022-08-21T20:18:19;18.50;99.90
40287;DHT22;25998;46.604;13.610;2022-08-21T20:21:35;18.60;99.90
40287;DHT22;25998;46.604;13.610;2022-08-21T20:24:46;18.50;99.90
40287;DHT22;25998;46.604;13.610;2022-08-21T20:27:57;18.60;99.90
40287;DHT22;25998;46.604;13.610;2022-08-21T20:31:08;18.60;99.90
40287;DHT22;25998;46.604;13.610;2022-08-21T20:34:20;18.40;99.90
40287;DHT22;25998;46.604;13.610;2022-08-21T20:37:31;18.50;99.90
40287;DHT22;25998;46.604;13.610;2022-08-21T20:40:56;18.40;99.90
40287;DHT22;25998;46.604;13.610;2022-08-21T20:44:10;18.20;99.90
40287;DHT22;25998;46.604;13.610;2022-08-21T20:47:22;18.00;99.90
40287;DHT22;25998;46.604;13.610;2022-08-21T20:50:38;18.00;99.90
40287;DHT22;25998;46.604;13.610;2022-08-21T21:00:49;18.20;99.90
40287;DHT22;25998;46.604;13.610;2022-08-21T21:04:10;18.20;99.90
40287;DHT22;25998;46.604;13.610;2022-08-21T21:07:29;18.30;99.90
40287;DHT22;25998;46.604;13.610;2022-08-21T21:10:55;18.30;99.90
40287;DHT22;25998;46.604;13.610;2022-08-21T21:14:11;18.40;99.90